Time;durP1;ratioP1;P1;durP2;ratioP2;P2;SDS_P1;SDS_P2;PMS_P1;PMS_P2;Temp;Humidity;BMP_temperature;BMP_pressure;BME280_temperature;BME280_humidity;BME280_pressure;Samples;Min_cycle;Max_cycle;Signal;HPM_P1;HPM_P2
2023/02/17 00:04:38;;;;;;;;;73.75;52.00;;;;;;;;4843553;29;51185;-53
2023/02/17 00:10:09;;;;;;;;;71.00;52.50;;;;;;;;4856225;29;51719;-53
2023/02/17 00:12:53;;;;;;;;;75.00;52.50;;;;;;;;4862422;29;52232;-54
2023/02/17 00:15:38;;;;;;;;;71.75;51.75;;;;;;;;4859800;29;51579;-53
2023/02/17 00:18:22;;;;;;;;;74.50;51.75;;;;;;;;4863609;29;51103;-52
2023/02/17 00:21:17;;;;;;;;;78.75;54.75;;;;;;;;4858721;29;51751;-53
2023/02/17 00:24:01;;;;;;;;;76.25;54.75;;;;;;;;4842453;29;51310;-50
2023/02/17 00:26:45;;;;;;;;;79.75;58.75;;;;;;;;4843221;29;51065;-52
2023/02/17 00:29:29;;;;;;;;;81.50;60.00;;;;;;;;4850628;29;51093;-53
2023/02/17 00:32:14;;;;;;;;;83.50;59.00;;;;;;;;4844934;29;51250;-54
2023/02/17 00:34:58;;;;;;;;;78.25;59.25;;;;;;;;4879407;29;51417;-51
2023/02/17 00:37:44;;;;;;;;;75.50;59.75;;;;;;;;4913458;28;51074;-51
2023/02/17 00:40:28;;;;;;;;;96.25;69.00;;;;;;;;4956204;28;51667;-53
2023/02/17 00:43:13;;;;;;;;;97.00;74.25;;;;;;;;4977994;28;51074;-53
2023/02/17 00:45:57;;;;;;;;;100.25;74.50;;;;;;;;4978210;28;51060;-53
2023/02/17 00:48:41;;;;;;;;;105.00;77.75;;;;;;;;5042997;28;51531;-51
2023/02/17 00:51:25;;;;;;;;;107.50;84.50;;;;;;;;5057579;28;51030;-53
2023/02/17 00:54:10;;;;;;;;;110.75;85.75;;;;;;;;5059092;28;52308;-51
2023/02/17 00:56:54;;;;;;;;;118.50;92.25;;;;;;;;5058452;28;51175;-55
2023/02/17 00:59:38;;;;;;;;;122.75;91.75;;;;;;;;5054219;28;51632;-53
2023/02/17 01:02:23;;;;;;;;;110.75;84.00;;;;;;;;5039695;28;51221;-56
2023/02/17 01:05:07;;;;;;;;;129.00;100.25;;;;;;;;5039683;28;51842;-52
2023/02/17 01:07:52;;;;;;;;;133.75;110.25;;;;;;;;5039611;28;51105;-52
2023/02/17 01:10:37;;;;;;;;;142.50;114.00;;;;;;;;5042837;28;51200;-51
2023/02/17 01:13:22;;;;;;;;;147.25;113.50;;;;;;;;5057773;28;51498;-49
2023/02/17 01:16:06;;;;;;;;;138.50;114.00;;;;;;;;5054573;28;51128;-50
2023/02/17 01:18:51;;;;;;;;;152.75;118.25;;;;;;;;5039714;28;51110;-52
2023/02/17 01:21:35;;;;;;;;;137.25;109.50;;;;;;;;5046336;28;51180;-50
2023/02/17 01:24:19;;;;;;;;;138.00;106.50;;;;;;;;5047268;28;51281;-54
2023/02/17 01:27:04;;;;;;;;;157.75;125.75;;;;;;;;5040826;28;51158;-52
2023/02/17 01:29:48;;;;;;;;;152.25;126.50;;;;;;;;5039476;28;51570;-52
2023/02/17 01:32:33;;;;;;;;;154.00;124.25;;;;;;;;5039084;28;51406;-52
2023/02/17 01:35:17;;;;;;;;;168.50;133.75;;;;;;;;5039616;28;51028;-48
2023/02/17 01:38:01;;;;;;;;;174.75;137.00;;;;;;;;5043050;28;51080;-52
2023/02/17 01:40:50;;;;;;;;;176.25;146.25;;;;;;;;4999462;28;51222;-49
2023/02/17 01:43:34;;;;;;;;;191.25;154.25;;;;;;;;5009789;28;51218;-48
2023/02/17 01:46:18;;;;;;;;;181.25;149.00;;;;;;;;5015642;28;51625;-51
2023/02/17 01:49:05;;;;;;;;;206.75;161.50;;;;;;;;5004937;28;51445;-50
2023/02/17 01:51:51;;;;;;;;;196.75;160.75;;;;;;;;5016359;28;51177;-51
2023/02/17 01:54:44;;;;;;;;;196.00;156.50;;;;;;;;5016848;28;51015;-53
2023/02/17 01:57:31;;;;;;;;;203.25;163.25;;;;;;;;5011139;28;51318;-51
2023/02/17 02:00:16;;;;;;;;;188.75;157.00;;;;;;;;5016833;28;51305;-51
2023/02/17 02:03:01;;;;;;;;;192.25;154.75;;;;;;;;5018929;28;51265;-49
2023/02/17 02:05:46;;;;;;;;;204.50;160.00;;;;;;;;5020414;28;51135;-49
2023/02/17 02:08:34;;;;;;;;;204.25;164.00;;;;;;;;5006318;28;51193;-53
2023/02/17 02:11:18;;;;;;;;;200.25;160.00;;;;;;;;5014630;28;51031;-50
2023/02/17 02:14:03;;;;;;;;;176.75;143.50;;;;;;;;5020436;28;51427;-50
2023/02/17 02:19:45;;;;;;;;;190.50;158.75;;;;;;;;4986536;28;51096;-54
2023/02/17 02:22:49;;;;;;;;;195.75;158.25;;;;;;;;4968556;28;51241;-51
2023/02/17 02:31:21;;;;;;;;;192.00;148.25;;;;;;;;4865340;29;51212;-52
2023/02/17 02:34:08;;;;;;;;;206.00;159.50;;;;;;;;4856403;29;51160;-52
2023/02/17 02:37:00;;;;;;;;;180.50;148.50;;;;;;;;4846894;29;51072;-53
2023/02/17 02:39:46;;;;;;;;;183.50;153.50;;;;;;;;4846525;29;51568;-50
2023/02/17 02:42:31;;;;;;;;;195.75;162.00;;;;;;;;4846415;29;51150;-50
2023/02/17 02:45:17;;;;;;;;;198.50;156.25;;;;;;;;4847900;29;51146;-48
2023/02/17 02:48:01;;;;;;;;;186.50;144.75;;;;;;;;4852795;29;51098;-51
2023/02/17 02:50:51;;;;;;;;;181.75;148.00;;;;;;;;4846908;29;51170;-51
2023/02/17 02:53:44;;;;;;;;;169.25;142.25;;;;;;;;4831711;29;51128;-49
2023/02/17 02:56:48;;;;;;;;;189.00;149.75;;;;;;;;4839467;29;51211;-52
2023/02/17 02:59:50;;;;;;;;;193.75;157.50;;;;;;;;4901356;28;51300;-51
2023/02/17 03:02:51;;;;;;;;;194.75;147.00;;;;;;;;4932116;28;51572;-54
2023/02/17 03:05:47;;;;;;;;;171.25;144.25;;;;;;;;4970234;28;51451;-51
2023/02/17 03:08:37;;;;;;;;;192.00;153.25;;;;;;;;5039655;28;51247;-50
2023/02/17 03:11:31;;;;;;;;;182.75;138.75;;;;;;;;5054302;28;51225;-49
2023/02/17 03:14:16;;;;;;;;;170.50;142.25;;;;;;;;5044080;28;51073;-52
2023/02/17 03:17:00;;;;;;;;;169.00;139.25;;;;;;;;5055769;28;51132;-54
2023/02/17 03:19:46;;;;;;;;;160.50;137.75;;;;;;;;5041477;28;51001;-49
2023/02/17 03:22:34;;;;;;;;;160.00;130.50;;;;;;;;5043196;28;51050;-54
2023/02/17 03:25:18;;;;;;;;;158.25;130.00;;;;;;;;5041259;28;51054;-55
2023/02/17 03:28:03;;;;;;;;;167.00;134.50;;;;;;;;5041683;28;51134;-54
2023/02/17 03:30:47;;;;;;;;;164.50;123.75;;;;;;;;5041389;28;51098;-51
2023/02/17 03:33:31;;;;;;;;;165.75;137.50;;;;;;;;5049417;28;51156;-50
2023/02/17 03:36:16;;;;;;;;;179.50;140.75;;;;;;;;5061430;28;51160;-52
2023/02/17 03:39:00;;;;;;;;;167.50;131.50;;;;;;;;5043768;28;51111;-51
2023/02/17 03:41:44;;;;;;;;;175.50;136.75;;;;;;;;5054681;28;51046;-55
2023/02/17 03:44:29;;;;;;;;;169.25;135.75;;;;;;;;5060714;28;51426;-51
2023/02/17 03:47:13;;;;;;;;;154.00;130.75;;;;;;;;5048996;28;51158;-50
2023/02/17 03:49:58;;;;;;;;;179.75;140.25;;;;;;;;5055491;28;51171;-51
2023/02/17 03:52:42;;;;;;;;;171.75;140.75;;;;;;;;5055510;28;51126;-51
2023/02/17 03:55:27;;;;;;;;;167.25;137.00;;;;;;;;5043648;28;50992;-49
2023/02/17 03:58:11;;;;;;;;;182.50;141.75;;;;;;;;5058157;28;51141;-50
2023/02/17 04:00:55;;;;;;;;;184.75;144.75;;;;;;;;5055590;28;51136;-54
2023/02/17 04:03:50;;;;;;;;;183.50;136.00;;;;;;;;4997101;28;51180;-54
2023/02/17 04:06:34;;;;;;;;;182.50;137.00;;;;;;;;4997491;28;51140;-53
2023/02/17 04:09:18;;;;;;;;;165.75;133.75;;;;;;;;4994960;28;51208;-51
2023/02/17 04:12:02;;;;;;;;;166.50;128.25;;;;;;;;4994128;28;51044;-51
2023/02/17 04:14:46;;;;;;;;;171.75;138.25;;;;;;;;4997769;28;51073;-51
2023/02/17 04:17:31;;;;;;;;;169.50;137.50;;;;;;;;4998144;28;51218;-53
2023/02/17 04:20:15;;;;;;;;;167.00;127.75;;;;;;;;4997616;28;51666;-52
2023/02/17 04:22:59;;;;;;;;;168.25;132.25;;;;;;;;4998049;28;51086;-50
2023/02/17 04:25:44;;;;;;;;;160.25;131.50;;;;;;;;4997656;28;51186;-52
2023/02/17 04:28:28;;;;;;;;;158.50;132.00;;;;;;;;4997509;28;51122;-52
2023/02/17 04:31:12;;;;;;;;;168.00;135.50;;;;;;;;4997243;28;51093;-53
2023/02/17 04:33:56;;;;;;;;;172.00;126.25;;;;;;;;4997504;28;51472;-51
2023/02/17 04:36:40;;;;;;;;;168.50;134.00;;;;;;;;4997943;28;51477;-52
2023/02/17 04:39:25;;;;;;;;;160.75;120.50;;;;;;;;5003143;28;51145;-53
2023/02/17 04:42:09;;;;;;;;;158.75;127.75;;;;;;;;5045237;28;51344;-50
2023/02/17 04:44:53;;;;;;;;;145.75;123.25;;;;;;;;5039565;28;51331;-56
2023/02/17 04:47:38;;;;;;;;;165.50;131.75;;;;;;;;5039891;28;51157;-52
2023/02/17 04:50:22;;;;;;;;;152.25;127.00;;;;;;;;5042104;28;51111;-50
2023/02/17 04:53:07;;;;;;;;;150.50;123.00;;;;;;;;5039435;28;51622;-53
2023/02/17 04:55:52;;;;;;;;;163.00;128.50;;;;;;;;5039946;28;51099;-54
2023/02/17 04:58:36;;;;;;;;;155.25;125.75;;;;;;;;5055992;28;51433;-51
2023/02/17 05:01:21;;;;;;;;;194.75;150.50;;;;;;;;5049493;28;51034;-55
2023/02/17 05:04:05;;;;;;;;;173.25;140.25;;;;;;;;5041042;28;51091;-53
2023/02/17 05:06:50;;;;;;;;;156.25;122.75;;;;;;;;5048167;28;51160;-54
2023/02/17 05:09:34;;;;;;;;;174.50;135.50;;;;;;;;5044286;28;51129;-55
2023/02/17 05:12:18;;;;;;;;;176.50;135.00;;;;;;;;5045392;28;51100;-53
2023/02/17 05:15:03;;;;;;;;;168.00;130.50;;;;;;;;5039408;28;51315;-52
2023/02/17 05:17:48;;;;;;;;;163.25;134.75;;;;;;;;5040267;28;51394;-55
2023/02/17 05:20:32;;;;;;;;;168.75;134.75;;;;;;;;5044588;28;51140;-52
2023/02/17 05:23:16;;;;;;;;;173.25;134.75;;;;;;;;5039842;28;51300;-53
2023/02/17 05:26:01;;;;;;;;;139.25;115.50;;;;;;;;5059490;28;51196;-53
2023/02/17 05:28:45;;;;;;;;;172.00;130.25;;;;;;;;5044581;28;51080;-54
2023/02/17 05:31:30;;;;;;;;;149.75;125.50;;;;;;;;5038391;28;51386;-54
2023/02/17 05:34:14;;;;;;;;;152.75;128.75;;;;;;;;5039143;28;51474;-54
2023/02/17 05:36:58;;;;;;;;;173.00;134.25;;;;;;;;5039508;28;51033;-53
2023/02/17 05:39:44;;;;;;;;;156.25;128.50;;;;;;;;5048559;28;52601;-51
2023/02/17 05:42:29;;;;;;;;;161.50;133.00;;;;;;;;5056123;28;52133;-52
2023/02/17 05:45:13;;;;;;;;;171.50;131.75;;;;;;;;5043778;28;51090;-52
2023/02/17 05:47:57;;;;;;;;;156.50;127.25;;;;;;;;5044655;28;51189;-56
2023/02/17 05:50:42;;;;;;;;;147.25;122.00;;;;;;;;5043093;28;52443;-50
2023/02/17 05:53:26;;;;;;;;;159.25;133.75;;;;;;;;5042693;28;51180;-50
2023/02/17 05:56:11;;;;;;;;;161.75;130.25;;;;;;;;5043372;28;51098;-53
2023/02/17 05:58:55;;;;;;;;;153.25;126.25;;;;;;;;5051858;28;51169;-50
2023/02/17 06:01:40;;;;;;;;;157.25;127.50;;;;;;;;5059990;28;51143;-53
2023/02/17 06:04:24;;;;;;;;;155.75;119.50;;;;;;;;5048141;28;51169;-51
2023/02/17 06:07:08;;;;;;;;;150.00;118.75;;;;;;;;5058684;28;51093;-52
2023/02/17 06:09:53;;;;;;;;;153.50;125.25;;;;;;;;5050580;28;51134;-51
2023/02/17 06:12:38;;;;;;;;;165.00;134.75;;;;;;;;5044976;28;51160;-54
2023/02/17 06:15:23;;;;;;;;;162.00;130.50;;;;;;;;5049262;28;51159;-55
2023/02/17 06:18:07;;;;;;;;;163.50;128.00;;;;;;;;5048845;28;51164;-54
2023/02/17 06:20:54;;;;;;;;;168.00;133.25;;;;;;;;5043437;28;51129;-53
2023/02/17 06:23:49;;;;;;;;;164.00;143.00;;;;;;;;5039206;28;51148;-54
2023/02/17 06:26:34;;;;;;;;;157.00;132.25;;;;;;;;5039895;28;51219;-53
2023/02/17 06:29:18;;;;;;;;;173.25;143.00;;;;;;;;5039620;28;51311;-44
2023/02/17 06:32:02;;;;;;;;;180.00;144.00;;;;;;;;5039858;28;51125;-45
2023/02/17 06:34:46;;;;;;;;;193.25;150.25;;;;;;;;5039992;28;51085;-45
2023/02/17 06:37:30;;;;;;;;;166.50;141.50;;;;;;;;5038949;28;51485;-44
2023/02/17 06:40:15;;;;;;;;;165.00;144.00;;;;;;;;5039812;28;51119;-45
2023/02/17 06:42:59;;;;;;;;;186.25;148.00;;;;;;;;5026449;28;51249;-45
2023/02/17 06:45:44;;;;;;;;;177.50;145.00;;;;;;;;5040777;28;51122;-45
2023/02/17 06:48:31;;;;;;;;;184.50;152.75;;;;;;;;5039183;28;52513;-47
2023/02/17 06:51:16;;;;;;;;;166.75;142.00;;;;;;;;5039932;28;51238;-46
2023/02/17 06:54:00;;;;;;;;;177.75;136.25;;;;;;;;5039011;28;51151;-46
2023/02/17 06:56:44;;;;;;;;;184.25;137.50;;;;;;;;5039614;28;51200;-47
2023/02/17 06:59:28;;;;;;;;;161.00;132.50;;;;;;;;5043111;28;51031;-45
2023/02/17 07:02:12;;;;;;;;;164.00;136.25;;;;;;;;5042054;28;51078;-43
2023/02/17 07:04:56;;;;;;;;;161.25;134.25;;;;;;;;5058875;28;51173;-43
2023/02/17 07:07:51;;;;;;;;;177.00;143.00;;;;;;;;5020972;28;51115;-42
2023/02/17 07:10:36;;;;;;;;;186.25;148.00;;;;;;;;5019098;28;51061;-45
2023/02/17 07:13:20;;;;;;;;;148.00;111.75;;;;;;;;5037951;28;51516;-44
2023/02/17 07:16:04;;;;;;;;;172.75;139.75;;;;;;;;5018965;28;51211;-44
2023/02/17 07:18:48;;;;;;;;;179.25;139.25;;;;;;;;5019035;28;51457;-43
2023/02/17 07:21:32;;;;;;;;;145.25;120.25;;;;;;;;5024267;28;51083;-47
2023/02/17 07:24:16;;;;;;;;;158.00;123.25;;;;;;;;5035741;28;51077;-44
2023/02/17 07:27:01;;;;;;;;;152.50;117.00;;;;;;;;5038839;28;51377;-43
2023/02/17 07:29:45;;;;;;;;;141.00;114.00;;;;;;;;5039210;28;51136;-44
2023/02/17 07:32:29;;;;;;;;;143.00;110.25;;;;;;;;5032282;28;51128;-45
2023/02/17 07:35:13;;;;;;;;;141.25;112.25;;;;;;;;5039038;28;51204;-45
2023/02/17 07:37:58;;;;;;;;;132.75;107.00;;;;;;;;5038932;28;51259;-48
2023/02/17 07:40:42;;;;;;;;;133.00;107.75;;;;;;;;5038920;28;51094;-46
2023/02/17 07:43:26;;;;;;;;;135.00;111.75;;;;;;;;5029012;28;51423;-46
2023/02/17 07:46:11;;;;;;;;;142.50;111.00;;;;;;;;5051204;28;51243;-48
2023/02/17 07:48:56;;;;;;;;;127.00;97.50;;;;;;;;5047716;28;51178;-47
2023/02/17 07:51:40;;;;;;;;;145.50;119.75;;;;;;;;5050386;28;51132;-51
2023/02/17 07:54:25;;;;;;;;;150.00;119.25;;;;;;;;5038126;28;51491;-44
2023/02/17 07:57:09;;;;;;;;;139.50;112.75;;;;;;;;5045414;28;51166;-46
2023/02/17 07:59:54;;;;;;;;;142.50;110.25;;;;;;;;5045224;28;51694;-46
2023/02/17 08:02:41;;;;;;;;;162.50;120.50;;;;;;;;5043591;28;51109;-47
2023/02/17 08:05:25;;;;;;;;;140.25;112.75;;;;;;;;5049335;28;51082;-45
2023/02/17 08:14:16;;;;;;;;;140.75;111.50;;;;;;;;5046369;28;51134;-45
2023/02/17 08:17:01;;;;;;;;;121.00;99.00;;;;;;;;5044447;28;51230;-45
2023/02/17 08:19:45;;;;;;;;;143.50;109.00;;;;;;;;5045795;28;51364;-45
2023/02/17 08:22:30;;;;;;;;;123.75;94.00;;;;;;;;5050383;28;51058;-44
2023/02/17 08:25:14;;;;;;;;;140.00;111.50;;;;;;;;5040803;28;51205;-45
2023/02/17 08:27:59;;;;;;;;;147.00;117.75;;;;;;;;5042750;28;51122;-48
2023/02/17 08:30:43;;;;;;;;;147.50;106.75;;;;;;;;5042032;28;51262;-47
2023/02/17 08:33:27;;;;;;;;;138.50;109.00;;;;;;;;5050072;28;51165;-45
2023/02/17 08:36:12;;;;;;;;;134.25;113.25;;;;;;;;5046989;28;51173;-46
2023/02/17 08:38:57;;;;;;;;;131.00;104.25;;;;;;;;5043067;28;51185;-46
2023/02/17 08:41:42;;;;;;;;;131.00;111.75;;;;;;;;5042548;28;51784;-44
2023/02/17 08:44:27;;;;;;;;;138.50;112.50;;;;;;;;5043799;28;51313;-46
2023/02/17 08:47:11;;;;;;;;;150.00;116.25;;;;;;;;5046002;28;51114;-45
2023/02/17 08:49:55;;;;;;;;;140.25;107.75;;;;;;;;5048367;28;51239;-47
2023/02/17 08:52:40;;;;;;;;;130.50;107.25;;;;;;;;5045385;28;51519;-46
2023/02/17 08:55:24;;;;;;;;;134.50;107.50;;;;;;;;5045354;28;51572;-45
2023/02/17 08:58:09;;;;;;;;;126.00;98.75;;;;;;;;5046585;28;52033;-45
2023/02/17 09:00:53;;;;;;;;;123.00;97.75;;;;;;;;5045131;28;51220;-46
2023/02/17 09:03:38;;;;;;;;;106.75;87.50;;;;;;;;5044836;28;51141;-46
2023/02/17 09:06:23;;;;;;;;;113.75;87.00;;;;;;;;5049552;28;51502;-46
2023/02/17 09:09:09;;;;;;;;;114.00;84.75;;;;;;;;5043305;28;51031;-46
2023/02/17 09:11:55;;;;;;;;;114.25;86.25;;;;;;;;5044550;28;51404;-45
2023/02/17 09:14:39;;;;;;;;;112.50;84.00;;;;;;;;5045977;28;51347;-49
2023/02/17 09:17:24;;;;;;;;;105.50;80.25;;;;;;;;5042223;28;51146;-47
2023/02/17 09:20:08;;;;;;;;;94.00;72.00;;;;;;;;5046624;28;51360;-45
2023/02/17 09:22:52;;;;;;;;;106.75;78.75;;;;;;;;5042387;28;51400;-46
2023/02/17 09:25:37;;;;;;;;;103.50;81.00;;;;;;;;5046218;28;51141;-45
2023/02/17 09:28:21;;;;;;;;;117.75;91.00;;;;;;;;5045236;28;51601;-46
2023/02/17 09:31:14;;;;;;;;;122.25;94.50;;;;;;;;5045333;28;51189;-46
2023/02/17 09:33:58;;;;;;;;;119.00;89.25;;;;;;;;5042205;28;51463;-48
2023/02/17 09:36:43;;;;;;;;;122.25;90.50;;;;;;;;5043135;28;51364;-47
2023/02/17 09:39:27;;;;;;;;;119.00;90.50;;;;;;;;5047913;28;51091;-46
2023/02/17 09:42:22;;;;;;;;;125.50;96.25;;;;;;;;5046236;28;51115;-48
2023/02/17 09:45:11;;;;;;;;;108.25;79.50;;;;;;;;5043325;28;51083;-48
2023/02/17 09:48:00;;;;;;;;;117.50;90.00;;;;;;;;5037810;28;51193;-46
2023/02/17 09:50:55;;;;;;;;;112.75;89.00;;;;;;;;5044233;28;51202;-47
2023/02/17 09:54:18;;;;;;;;;122.25;84.25;;;;;;;;5045687;28;51062;-46
2023/02/17 09:57:03;;;;;;;;;130.25;97.00;;;;;;;;5023857;28;51252;-45
2023/02/17 09:59:53;;;;;;;;;120.75;93.75;;;;;;;;5024700;28;51544;-45
2023/02/17 10:02:51;;;;;;;;;106.25;97.00;;;;;;;;5045140;28;51510;-45
2023/02/17 10:05:38;;;;;;;;;121.50;96.00;;;;;;;;5040992;28;51157;-45
2023/02/17 10:08:25;;;;;;;;;122.00;91.00;;;;;;;;5041865;28;52342;-46
2023/02/17 10:11:24;;;;;;;;;116.75;92.25;;;;;;;;5048142;28;51336;-46
2023/02/17 10:14:24;;;;;;;;;117.25;90.50;;;;;;;;5037023;28;51255;-47
2023/02/17 10:17:36;;;;;;;;;102.25;82.75;;;;;;;;5041009;28;52224;-47
2023/02/17 10:20:39;;;;;;;;;101.00;71.00;;;;;;;;5039316;28;51341;-45
2023/02/17 10:23:25;;;;;;;;;130.75;97.25;;;;;;;;5041676;28;52078;-48
2023/02/17 10:26:21;;;;;;;;;116.50;92.00;;;;;;;;5043536;28;51078;-46
2023/02/17 10:29:18;;;;;;;;;144.00;108.50;;;;;;;;5051896;28;51139;-46
2023/02/17 10:32:25;;;;;;;;;122.50;99.25;;;;;;;;5049325;28;51100;-49
2023/02/17 10:35:09;;;;;;;;;137.75;103.25;;;;;;;;5050245;28;52019;-47
2023/02/17 10:40:56;;;;;;;;;115.25;84.00;;;;;;;;4987707;28;51704;-47
2023/02/17 10:43:50;;;;;;;;;132.75;87.50;;;;;;;;4905688;28;51231;-48
2023/02/17 10:46:34;;;;;;;;;141.75;91.75;;;;;;;;4911474;28;51045;-46
2023/02/17 10:49:29;;;;;;;;;116.00;84.75;;;;;;;;4906982;28;51295;-48
2023/02/17 10:54:59;;;;;;;;;114.00;83.00;;;;;;;;4860094;29;51063;-47
2023/02/17 10:57:43;;;;;;;;;127.50;95.50;;;;;;;;4864707;29;51263;-48
2023/02/17 11:00:28;;;;;;;;;116.50;81.25;;;;;;;;4861621;29;51135;-46
2023/02/17 11:03:19;;;;;;;;;120.00;86.00;;;;;;;;4863418;29;51163;-49
2023/02/17 11:06:05;;;;;;;;;120.75;92.50;;;;;;;;4860580;29;52881;-47
2023/02/17 11:08:49;;;;;;;;;119.00;82.25;;;;;;;;4859785;29;51103;-45
2023/02/17 11:11:35;;;;;;;;;121.00;85.00;;;;;;;;4861906;29;52321;-46
2023/02/17 11:14:27;;;;;;;;;132.75;95.00;;;;;;;;4861854;29;52200;-50
2023/02/17 11:17:14;;;;;;;;;109.00;73.00;;;;;;;;4866871;28;52922;-48
2023/02/17 11:20:03;;;;;;;;;103.50;81.00;;;;;;;;4934432;28;51225;-47
2023/02/17 11:23:02;;;;;;;;;96.50;75.50;;;;;;;;4975090;28;51202;-46
2023/02/17 11:25:54;;;;;;;;;118.50;82.00;;;;;;;;4973718;28;51084;-45
2023/02/17 11:28:38;;;;;;;;;122.50;82.25;;;;;;;;4973336;28;51497;-45
2023/02/17 11:34:20;;;;;;;;;122.50;83.75;;;;;;;;4984880;28;52434;-45
2023/02/17 11:37:08;;;;;;;;;121.50;80.25;;;;;;;;4983013;28;51410;-46
2023/02/17 11:39:54;;;;;;;;;114.50;71.50;;;;;;;;4984061;28;51249;-47
2023/02/17 11:42:38;;;;;;;;;133.50;88.75;;;;;;;;4984558;28;51481;-46
2023/02/17 11:45:22;;;;;;;;;105.00;73.25;;;;;;;;4980105;28;51058;-46
2023/02/17 11:48:09;;;;;;;;;140.25;92.75;;;;;;;;4984678;28;51119;-44
2023/02/17 11:51:14;;;;;;;;;116.50;82.25;;;;;;;;4989747;28;51495;-45
2023/02/17 11:54:03;;;;;;;;;168.50;129.50;;;;;;;;4986611;28;51308;-45
2023/02/17 11:57:06;;;;;;;;;132.25;92.00;;;;;;;;4982097;28;51059;-45
2023/02/17 12:03:20;;;;;;;;;125.00;93.50;;;;;;;;4975392;28;51624;-48
2023/02/17 12:06:16;;;;;;;;;147.25;127.75;;;;;;;;4975377;28;51113;-44
2023/02/17 12:09:20;;;;;;;;;147.50;109.75;;;;;;;;4976134;28;51146;-46
2023/02/17 12:12:16;;;;;;;;;144.50;109.25;;;;;;;;5002976;28;51248;-46
2023/02/17 12:15:18;;;;;;;;;110.75;78.25;;;;;;;;5004844;28;51135;-48
2023/02/17 12:18:25;;;;;;;;;115.75;78.00;;;;;;;;5006734;28;51512;-45
2023/02/17 12:21:15;;;;;;;;;107.25;75.75;;;;;;;;5009834;28;51444;-44
2023/02/17 12:24:23;;;;;;;;;118.75;84.75;;;;;;;;5011919;28;51610;-47
2023/02/17 12:29:59;;;;;;;;;109.75;79.50;;;;;;;;4996520;28;52226;-45
2023/02/17 12:33:01;;;;;;;;;93.25;69.00;;;;;;;;4994261;28;51121;-45
2023/02/17 12:36:05;;;;;;;;;119.00;74.50;;;;;;;;4955345;28;51507;-44
2023/02/17 12:38:54;;;;;;;;;103.25;75.00;;;;;;;;4955336;28;51160;-47
2023/02/17 12:41:40;;;;;;;;;93.50;70.25;;;;;;;;4973850;28;51290;-47
2023/02/17 12:44:29;;;;;;;;;107.75;77.50;;;;;;;;4974308;28;51320;-44
2023/02/17 12:47:19;;;;;;;;;106.25;76.25;;;;;;;;4960286;28;51164;-46
2023/02/17 12:50:22;;;;;;;;;107.25;77.50;;;;;;;;4975108;28;51258;-45
2023/02/17 12:53:12;;;;;;;;;129.75;89.75;;;;;;;;4973887;28;51290;-44
2023/02/17 12:55:58;;;;;;;;;120.50;90.50;;;;;;;;4972430;28;51448;-44
2023/02/17 12:58:51;;;;;;;;;111.50;78.25;;;;;;;;4917017;28;51100;-47
2023/02/17 13:01:46;;;;;;;;;110.25;81.25;;;;;;;;4917436;28;51469;-45
2023/02/17 13:07:19;;;;;;;;;124.00;82.75;;;;;;;;4925369;28;51255;-44
2023/02/17 13:10:04;;;;;;;;;100.75;75.00;;;;;;;;4931657;28;51361;-44
2023/02/17 13:13:02;;;;;;;;;100.50;72.75;;;;;;;;4919927;28;51234;-46
2023/02/17 13:15:46;;;;;;;;;112.00;81.00;;;;;;;;4911160;28;51188;-44
2023/02/17 13:18:32;;;;;;;;;112.50;79.50;;;;;;;;4913237;28;51344;-43
2023/02/17 13:24:06;;;;;;;;;113.75;80.75;;;;;;;;4859238;29;51229;-44
2023/02/17 13:26:50;;;;;;;;;116.50;89.75;;;;;;;;4859530;29;51120;-45
2023/02/17 13:29:35;;;;;;;;;130.75;93.00;;;;;;;;4859310;29;51093;-44
2023/02/17 13:32:25;;;;;;;;;123.75;83.50;;;;;;;;4860258;29;51330;-47
2023/02/17 13:35:13;;;;;;;;;111.00;86.00;;;;;;;;4874178;28;51605;-45
2023/02/17 13:37:57;;;;;;;;;115.00;79.50;;;;;;;;4915112;28;51229;-45
2023/02/17 13:40:42;;;;;;;;;140.25;89.00;;;;;;;;4922608;28;51466;-45
2023/02/17 13:43:28;;;;;;;;;117.50;78.50;;;;;;;;4924500;28;51205;-43
2023/02/17 13:46:18;;;;;;;;;119.50;75.75;;;;;;;;4984015;28;51481;-44
2023/02/17 13:49:04;;;;;;;;;106.75;71.25;;;;;;;;4979426;28;51334;-47
2023/02/17 13:51:48;;;;;;;;;127.75;81.00;;;;;;;;4966773;28;51655;-45
2023/02/17 13:54:32;;;;;;;;;117.75;79.00;;;;;;;;4984573;28;51167;-46
2023/02/17 13:57:42;;;;;;;;;112.50;69.75;;;;;;;;4983858;28;51173;-47
2023/02/17 14:00:28;;;;;;;;;117.25;80.50;;;;;;;;4997193;28;51511;-47
2023/02/17 14:03:15;;;;;;;;;118.50;81.00;;;;;;;;5049254;28;51191;-47
2023/02/17 14:06:01;;;;;;;;;81.50;70.25;;;;;;;;5051575;28;51676;-44
2023/02/17 14:08:45;;;;;;;;;96.00;71.25;;;;;;;;5047971;28;51098;-46
2023/02/17 14:11:29;;;;;;;;;109.50;78.50;;;;;;;;5048754;28;51396;-45
2023/02/17 14:14:14;;;;;;;;;113.50;79.00;;;;;;;;5054362;28;51107;-47
2023/02/17 14:17:06;;;;;;;;;120.75;77.50;;;;;;;;5047423;28;51053;-45
2023/02/17 14:19:50;;;;;;;;;97.33;67.00;;;;;;;;5046496;28;51131;-48
2023/02/17 14:22:36;;;;;;;;;97.75;68.00;;;;;;;;5049289;28;51127;-45
2023/02/17 14:25:26;;;;;;;;;111.00;79.00;;;;;;;;5049400;28;51230;-47
2023/02/17 14:28:17;;;;;;;;;97.50;60.25;;;;;;;;5046286;28;51328;-45
2023/02/17 14:31:11;;;;;;;;;99.50;62.50;;;;;;;;5053017;28;51176;-50
2023/02/17 14:34:00;;;;;;;;;97.50;73.50;;;;;;;;5053620;28;51087;-48
2023/02/17 14:36:44;;;;;;;;;131.00;89.25;;;;;;;;5047121;28;51180;-45
2023/02/17 14:39:28;;;;;;;;;121.75;76.50;;;;;;;;5046488;28;51174;-43
2023/02/17 14:42:13;;;;;;;;;117.50;72.00;;;;;;;;5050999;28;51184;-44
2023/02/17 14:44:57;;;;;;;;;111.25;75.25;;;;;;;;5049588;28;51343;-47
2023/02/17 14:47:42;;;;;;;;;106.50;62.75;;;;;;;;5047683;28;51069;-45
2023/02/17 14:50:26;;;;;;;;;100.50;59.00;;;;;;;;5049530;28;51512;-44
2023/02/17 14:53:11;;;;;;;;;109.25;70.50;;;;;;;;5052235;28;51492;-47
2023/02/17 14:56:00;;;;;;;;;99.25;60.50;;;;;;;;5047386;28;51090;-44
2023/02/17 14:58:45;;;;;;;;;71.50;47.50;;;;;;;;5047974;28;51074;-45
2023/02/17 15:01:29;;;;;;;;;118.75;77.00;;;;;;;;5045976;28;51546;-44
2023/02/17 15:04:13;;;;;;;;;89.50;69.50;;;;;;;;5049606;28;51178;-46
2023/02/17 15:06:58;;;;;;;;;124.00;72.25;;;;;;;;5052904;28;51627;-46
2023/02/17 15:09:43;;;;;;;;;111.25;76.50;;;;;;;;5045296;28;51343;-43
2023/02/17 15:12:28;;;;;;;;;101.75;68.75;;;;;;;;5046797;28;51096;-45
2023/02/17 15:15:16;;;;;;;;;109.50;72.00;;;;;;;;5046737;28;51548;-45
2023/02/17 15:18:00;;;;;;;;;100.50;66.00;;;;;;;;5042919;28;51292;-44
2023/02/17 15:20:46;;;;;;;;;100.75;75.25;;;;;;;;5047798;28;51228;-45
2023/02/17 15:23:33;;;;;;;;;110.00;76.25;;;;;;;;5047334;28;51129;-44
2023/02/17 15:26:17;;;;;;;;;96.25;67.50;;;;;;;;5047597;28;51488;-44
2023/02/17 15:29:01;;;;;;;;;102.50;66.50;;;;;;;;5041722;28;51198;-43
2023/02/17 15:31:46;;;;;;;;;100.00;70.25;;;;;;;;5048998;28;51648;-46
2023/02/17 15:34:31;;;;;;;;;95.75;65.50;;;;;;;;5044891;28;51182;-44
2023/02/17 15:37:15;;;;;;;;;99.25;71.75;;;;;;;;5047498;28;52535;-44
2023/02/17 15:39:59;;;;;;;;;92.75;61.50;;;;;;;;5046785;28;51156;-45
2023/02/17 15:42:45;;;;;;;;;117.25;73.00;;;;;;;;5047512;28;51176;-45
2023/02/17 15:45:29;;;;;;;;;94.50;65.25;;;;;;;;5042137;28;51122;-46
2023/02/17 15:48:23;;;;;;;;;100.25;63.00;;;;;;;;5044259;28;51122;-45
2023/02/17 15:51:14;;;;;;;;;88.50;62.75;;;;;;;;5046422;28;51128;-46
2023/02/17 15:53:59;;;;;;;;;104.25;67.75;;;;;;;;5044235;28;51415;-47
2023/02/17 15:56:45;;;;;;;;;83.50;54.25;;;;;;;;5043929;28;51677;-44
2023/02/17 15:59:29;;;;;;;;;98.00;63.75;;;;;;;;5049743;28;51173;-45
2023/02/17 16:02:18;;;;;;;;;99.00;65.25;;;;;;;;5045801;28;51117;-45
2023/02/17 16:05:03;;;;;;;;;102.25;68.25;;;;;;;;5046255;28;51182;-47
2023/02/17 16:07:47;;;;;;;;;104.00;64.50;;;;;;;;5043679;28;51180;-46
2023/02/17 16:10:32;;;;;;;;;112.00;66.50;;;;;;;;5051646;28;51160;-44
2023/02/17 16:13:18;;;;;;;;;116.00;60.75;;;;;;;;5049949;28;52208;-45
2023/02/17 16:16:02;;;;;;;;;111.50;66.75;;;;;;;;5044138;28;51146;-45
2023/02/17 16:18:47;;;;;;;;;99.00;62.00;;;;;;;;5045566;28;51050;-45
2023/02/17 16:21:31;;;;;;;;;88.25;60.50;;;;;;;;5048664;28;51681;-46
2023/02/17 16:24:16;;;;;;;;;99.75;63.00;;;;;;;;5046921;28;51184;-48
2023/02/17 16:27:00;;;;;;;;;91.50;58.75;;;;;;;;5046713;28;51168;-45
2023/02/17 16:29:45;;;;;;;;;94.75;60.50;;;;;;;;5045831;28;51168;-47
2023/02/17 16:32:29;;;;;;;;;92.25;63.25;;;;;;;;5042920;28;51131;-44